createdAt,value
2023-12-11T00:01:34.160Z,9.80
2023-12-11T00:04:00.836Z,9.90
2023-12-11T00:06:27.557Z,12.90
2023-12-11T00:08:54.270Z,9.10
2023-12-11T00:11:22.213Z,8.10
2023-12-11T00:13:49.143Z,11.80
2023-12-11T00:16:17.771Z,12.00
2023-12-11T00:18:44.738Z,9.90
2023-12-11T00:21:11.904Z,9.30
2023-12-11T00:23:38.699Z,8.90
2023-12-11T00:26:06.048Z,9.60
2023-12-11T00:28:32.659Z,13.00
2023-12-11T00:31:00.157Z,9.50
2023-12-11T00:33:26.850Z,10.60
2023-12-11T00:35:53.662Z,8.50
2023-12-11T00:38:20.356Z,11.60
2023-12-11T00:40:47.239Z,9.30
2023-12-11T00:43:13.991Z,5.00
2023-12-11T00:45:40.616Z,10.10
2023-12-11T00:48:07.315Z,4.70
2023-12-11T00:50:34.502Z,13.60
2023-12-11T00:53:01.053Z,10.30
2023-12-11T00:55:27.981Z,8.00
2023-12-11T00:57:54.576Z,8.20
2023-12-11T01:00:22.249Z,11.80
2023-12-11T01:02:48.951Z,7.20
2023-12-11T01:05:15.684Z,7.50
2023-12-11T01:07:42.350Z,10.10
2023-12-11T01:12:48.032Z,11.60
2023-12-11T01:15:14.601Z,9.00
2023-12-11T01:17:41.506Z,9.20
2023-12-11T01:20:12.258Z,6.30
2023-12-11T01:22:38.964Z,7.80
2023-12-11T01:25:09.607Z,10.30
2023-12-11T01:27:36.658Z,8.00
2023-12-11T01:30:03.742Z,8.50
2023-12-11T01:32:30.537Z,8.50
2023-12-11T01:34:57.611Z,9.30
2023-12-11T01:37:24.176Z,8.90
2023-12-11T01:39:50.742Z,8.60
2023-12-11T01:42:17.659Z,7.20
2023-12-11T01:44:44.223Z,9.00
2023-12-11T01:47:11.169Z,11.00
2023-12-11T01:49:38.821Z,7.10
2023-12-11T01:52:07.999Z,8.10
2023-12-11T01:54:37.610Z,9.10
2023-12-11T01:57:04.661Z,7.40
2023-12-11T01:59:31.311Z,9.20
2023-12-11T02:01:58.141Z,8.10
2023-12-11T02:04:25.047Z,10.30
2023-12-11T02:06:51.842Z,5.70
2023-12-11T02:09:18.543Z,5.90
2023-12-11T02:11:47.096Z,8.70
2023-12-11T02:14:14.344Z,8.60
2023-12-11T02:16:42.278Z,10.30
2023-12-11T02:19:09.204Z,6.30
2023-12-11T02:21:36.456Z,8.10
2023-12-11T02:24:18.889Z,9.80
2023-12-11T02:26:45.533Z,7.70
2023-12-11T02:29:12.248Z,8.80
2023-12-11T02:31:41.983Z,6.60
2023-12-11T02:34:09.858Z,12.60
2023-12-11T02:36:36.802Z,7.80
2023-12-11T02:39:03.924Z,6.20
2023-12-11T02:41:30.557Z,8.70
2023-12-11T02:43:58.888Z,12.20
2023-12-11T02:46:25.737Z,4.30
2023-12-11T02:48:52.568Z,5.90
2023-12-11T02:51:19.329Z,8.80
2023-12-11T02:53:46.294Z,5.60
2023-12-11T02:56:12.920Z,8.50
2023-12-11T02:58:39.587Z,12.50
2023-12-11T03:01:06.356Z,6.40
2023-12-11T03:03:33.181Z,6.60
2023-12-11T03:06:00.890Z,6.90
2023-12-11T03:08:27.486Z,9.80
2023-12-11T03:10:54.094Z,8.20
2023-12-11T03:13:20.736Z,6.20
2023-12-11T03:15:47.276Z,10.00
2023-12-11T03:18:13.950Z,8.70
2023-12-11T03:20:40.560Z,6.50
2023-12-11T03:23:07.059Z,8.50
2023-12-11T03:25:33.563Z,9.60
2023-12-11T03:28:00.353Z,7.80
2023-12-11T03:30:26.994Z,4.90
2023-12-11T03:32:53.623Z,7.90
2023-12-11T03:35:20.340Z,13.00
2023-12-11T03:37:49.162Z,6.00
2023-12-11T03:40:15.866Z,7.90
2023-12-11T03:42:43.435Z,6.80
2023-12-11T03:45:11.358Z,13.30
2023-12-11T03:47:38.095Z,10.30
2023-12-11T03:50:05.264Z,8.20
2023-12-11T03:52:31.871Z,9.40
2023-12-11T03:54:58.598Z,9.20
2023-12-11T03:57:25.205Z,5.50
2023-12-11T03:59:51.818Z,10.10
2023-12-11T04:02:18.552Z,8.70
2023-12-11T04:04:45.286Z,8.20
2023-12-11T04:07:12.159Z,8.90
2023-12-11T04:09:38.961Z,5.60
2023-12-11T04:12:05.552Z,3.10
2023-12-11T04:14:32.209Z,6.10
2023-12-11T04:16:58.833Z,3.90
2023-12-11T04:19:25.821Z,2.90
2023-12-11T04:21:52.520Z,3.60
2023-12-11T04:24:19.131Z,3.90
2023-12-11T04:26:47.644Z,4.50
2023-12-11T04:29:14.311Z,3.30
2023-12-11T04:31:40.919Z,4.10
2023-12-11T04:34:07.758Z,2.00
2023-12-11T04:36:34.380Z,2.70
2023-12-11T04:39:00.929Z,1.70
2023-12-11T04:41:27.696Z,2.10
2023-12-11T04:43:54.198Z,2.40
2023-12-11T04:46:20.841Z,3.20
2023-12-11T04:48:47.638Z,2.80
2023-12-11T04:51:14.396Z,4.40
2023-12-11T04:53:41.008Z,2.10
2023-12-11T04:56:08.482Z,3.10
2023-12-11T04:58:35.129Z,3.30
2023-12-11T05:01:01.843Z,2.70
2023-12-11T05:03:28.607Z,3.90
2023-12-11T05:05:55.289Z,1.70
2023-12-11T05:08:21.822Z,3.00
2023-12-11T05:10:48.344Z,3.30
2023-12-11T05:13:14.949Z,3.80
2023-12-11T05:15:41.801Z,2.90
2023-12-11T05:18:08.512Z,3.90
2023-12-11T05:20:35.085Z,2.10
2023-12-11T05:23:01.607Z,3.00
2023-12-11T05:25:28.129Z,4.50
2023-12-11T05:27:54.755Z,2.30
2023-12-11T05:30:23.523Z,4.50
2023-12-11T05:32:51.185Z,3.10
2023-12-11T05:35:18.010Z,4.70
2023-12-11T05:37:44.663Z,5.30
2023-12-11T05:40:21.974Z,2.10
2023-12-11T05:42:51.564Z,2.60
2023-12-11T05:45:18.387Z,1.90
2023-12-11T05:47:44.893Z,2.70
2023-12-11T05:50:12.565Z,4.90
2023-12-11T05:52:39.404Z,4.20
2023-12-11T05:55:06.117Z,3.80
2023-12-11T05:57:33.205Z,3.40
2023-12-11T05:59:59.791Z,2.80
2023-12-11T06:02:26.489Z,3.30
2023-12-11T06:04:53.232Z,2.80
2023-12-11T06:07:20.205Z,3.60
2023-12-11T06:09:46.757Z,3.70
2023-12-11T06:12:13.582Z,1.80
2023-12-11T06:14:41.000Z,3.30
2023-12-11T06:17:07.745Z,6.40
2023-12-11T06:19:34.743Z,3.50
2023-12-11T06:22:01.384Z,3.60
2023-12-11T06:24:28.937Z,5.70
2023-12-11T06:26:55.686Z,4.70
2023-12-11T06:29:22.356Z,2.90
2023-12-11T06:31:48.962Z,3.70
2023-12-11T06:34:15.781Z,4.50
2023-12-11T06:36:42.990Z,4.40
2023-12-11T06:39:10.192Z,4.00
2023-12-11T06:41:37.019Z,3.30
2023-12-11T06:44:04.072Z,4.10
2023-12-11T06:46:31.233Z,3.80
2023-12-11T06:48:58.649Z,3.90
2023-12-11T06:51:25.600Z,4.40
2023-12-11T06:53:58.851Z,4.30
2023-12-11T06:56:31.373Z,4.50
2023-12-11T06:58:58.567Z,5.50
2023-12-11T07:01:29.858Z,4.10
2023-12-11T07:03:57.154Z,3.60
2023-12-11T07:06:24.677Z,5.30
2023-12-11T07:08:51.390Z,3.40
2023-12-11T07:11:18.418Z,5.60
2023-12-11T07:13:45.550Z,4.40
2023-12-11T07:16:12.501Z,5.60
2023-12-11T07:18:39.886Z,5.20
2023-12-11T07:21:12.144Z,3.10
2023-12-11T07:23:39.528Z,6.70
2023-12-11T07:26:09.164Z,5.40
2023-12-11T07:28:41.138Z,3.20
2023-12-11T07:31:07.794Z,5.20
2023-12-11T07:33:34.597Z,5.00
2023-12-11T07:36:05.179Z,3.60
2023-12-11T07:38:31.997Z,4.00
2023-12-11T07:40:59.076Z,4.40
2023-12-11T07:43:26.136Z,3.80
2023-12-11T07:45:55.900Z,4.30
2023-12-11T07:48:22.575Z,4.70
2023-12-11T07:50:49.240Z,3.80
2023-12-11T07:53:15.995Z,2.10
2023-12-11T07:55:42.757Z,3.00
2023-12-11T07:58:11.132Z,4.60
2023-12-11T08:00:37.881Z,5.20
2023-12-11T08:03:06.576Z,3.10
2023-12-11T08:05:33.276Z,4.30
2023-12-11T08:07:59.990Z,6.20
2023-12-11T08:10:26.803Z,5.50
2023-12-11T08:12:53.681Z,4.80
2023-12-11T08:15:20.644Z,5.90
2023-12-11T08:17:47.256Z,5.80
2023-12-11T08:20:17.326Z,5.40
2023-12-11T08:22:44.363Z,3.60
2023-12-11T08:25:11.849Z,4.10
2023-12-11T08:27:38.501Z,3.20
2023-12-11T08:30:05.628Z,4.90
2023-12-11T08:32:32.221Z,5.90
2023-12-11T08:35:04.150Z,6.50
2023-12-11T08:37:31.081Z,9.40
2023-12-11T08:39:57.802Z,5.30
2023-12-11T08:42:24.402Z,2.80
2023-12-11T08:44:50.979Z,2.80
2023-12-11T08:47:17.688Z,4.80
2023-12-11T08:49:44.507Z,4.40
2023-12-11T08:52:11.282Z,5.00
2023-12-11T08:54:37.996Z,5.70
2023-12-11T08:57:04.826Z,4.60
2023-12-11T08:59:32.852Z,4.10
2023-12-11T09:01:59.633Z,5.10
2023-12-11T09:04:26.396Z,5.40
2023-12-11T09:06:55.228Z,4.80
2023-12-11T09:09:21.867Z,5.10
2023-12-11T09:11:49.411Z,4.50
2023-12-11T09:14:16.199Z,4.20
2023-12-11T09:16:42.777Z,4.80
2023-12-11T09:19:09.423Z,4.00
2023-12-11T09:21:36.829Z,3.70
2023-12-11T09:24:04.527Z,5.20
2023-12-11T09:26:31.063Z,6.10
2023-12-11T09:28:58.239Z,6.50
2023-12-11T09:31:25.047Z,4.00
2023-12-11T09:33:51.987Z,4.40
2023-12-11T09:36:19.590Z,4.80
2023-12-11T09:38:46.208Z,5.90
2023-12-11T09:41:12.883Z,4.10
2023-12-11T09:43:40.087Z,5.90
2023-12-11T09:46:08.824Z,4.80
2023-12-11T09:48:35.720Z,3.50
2023-12-11T09:51:03.332Z,3.80
2023-12-11T09:53:32.933Z,4.90
2023-12-11T09:56:00.194Z,3.70
2023-12-11T09:58:27.107Z,4.30
2023-12-11T10:00:53.800Z,4.00
2023-12-11T10:03:20.594Z,3.20
2023-12-11T10:05:48.369Z,3.00
2023-12-11T10:08:16.678Z,4.90
2023-12-11T10:10:43.310Z,4.00
2023-12-11T10:13:23.270Z,4.00
2023-12-11T10:15:50.673Z,3.60
2023-12-11T10:18:17.485Z,3.60
2023-12-11T10:20:54.485Z,4.20
2023-12-11T10:23:22.535Z,5.50
2023-12-11T10:25:51.341Z,3.20
2023-12-11T10:28:21.392Z,2.30
2023-12-11T10:30:52.761Z,3.70
2023-12-11T10:33:20.463Z,3.10
2023-12-11T10:35:48.029Z,4.50
2023-12-11T10:38:25.713Z,3.60
2023-12-11T10:40:53.943Z,6.20
2023-12-11T10:43:20.737Z,4.60
2023-12-11T10:45:51.224Z,6.70
2023-12-11T10:48:23.304Z,6.00
2023-12-11T10:50:50.781Z,4.40
2023-12-11T10:53:17.850Z,4.40
2023-12-11T10:55:47.863Z,4.10
2023-12-11T10:58:15.255Z,5.10
2023-12-11T11:00:44.635Z,3.10
2023-12-11T11:03:13.223Z,4.30
2023-12-11T11:05:41.752Z,3.80
2023-12-11T11:08:16.397Z,2.70
2023-12-11T11:11:15.257Z,3.50
2023-12-11T11:14:09.247Z,4.40
2023-12-11T11:16:55.086Z,5.60
2023-12-11T11:19:21.979Z,3.30
2023-12-11T11:22:09.821Z,4.10
2023-12-11T11:24:36.786Z,6.30
2023-12-11T11:27:05.264Z,2.00
2023-12-11T11:29:42.922Z,3.10
2023-12-11T11:32:11.301Z,5.40
2023-12-11T11:34:41.097Z,3.50
2023-12-11T11:37:10.435Z,3.60
2023-12-11T11:40:04.477Z,3.50
2023-12-11T11:42:36.074Z,4.90
2023-12-11T11:45:05.943Z,4.10
2023-12-11T11:47:33.208Z,5.50
2023-12-11T11:50:07.607Z,5.90
2023-12-11T11:52:36.276Z,5.30
2023-12-11T11:55:27.393Z,5.40
2023-12-11T11:57:54.860Z,3.90
2023-12-11T12:00:23.456Z,4.20
2023-12-11T12:03:07.432Z,4.30
2023-12-11T12:05:35.289Z,5.50
2023-12-11T12:08:05.681Z,3.60
2023-12-11T12:10:32.371Z,3.90
2023-12-11T12:13:00.649Z,5.20
2023-12-11T12:15:28.560Z,3.60
2023-12-11T12:18:07.253Z,5.60
2023-12-11T12:20:34.030Z,3.80
2023-12-11T12:23:06.203Z,4.40
2023-12-11T12:25:34.378Z,3.90
2023-12-11T16:15:34.950Z,5.70
2023-12-11T16:18:02.994Z,3.30
2023-12-11T16:20:30.949Z,5.40
2023-12-11T16:22:58.988Z,4.10
2023-12-11T16:25:27.165Z,6.10
2023-12-11T16:27:55.271Z,3.70
2023-12-11T16:30:23.318Z,5.80
2023-12-11T16:32:51.388Z,4.90
2023-12-11T16:35:19.340Z,4.90
2023-12-11T16:37:47.296Z,4.50
2023-12-11T16:40:15.824Z,6.80
2023-12-11T16:42:45.405Z,4.00
2023-12-11T16:45:14.602Z,5.40
2023-12-11T16:47:51.003Z,5.10
2023-12-11T16:50:19.042Z,5.80
2023-12-11T16:52:47.080Z,5.40
2023-12-11T16:55:16.191Z,5.40
2023-12-11T16:57:44.893Z,4.60
2023-12-11T17:00:13.812Z,6.00
2023-12-11T17:02:41.796Z,6.90
2023-12-11T17:05:10.030Z,10.50
2023-12-11T17:07:38.371Z,6.90
2023-12-11T17:10:07.172Z,7.50
2023-12-11T17:12:35.143Z,8.40
2023-12-11T17:15:03.892Z,9.80
2023-12-11T17:17:32.384Z,7.40
2023-12-11T17:20:00.458Z,6.40
2023-12-11T17:22:28.530Z,8.00
2023-12-11T17:24:56.784Z,8.80
2023-12-11T17:27:24.909Z,6.00
2023-12-11T17:29:52.902Z,10.60
2023-12-11T17:32:21.120Z,9.60
2023-12-11T17:34:49.400Z,5.20
2023-12-11T17:37:17.868Z,6.40
2023-12-11T17:39:45.813Z,8.90
2023-12-11T17:42:14.239Z,12.70
2023-12-11T17:44:42.223Z,10.20
2023-12-11T17:47:10.777Z,9.90
2023-12-11T17:49:41.317Z,8.40
2023-12-11T17:52:12.001Z,9.20
2023-12-11T17:54:40.241Z,8.70
2023-12-11T17:57:08.294Z,9.20
2023-12-11T17:59:36.187Z,9.30
2023-12-11T18:02:05.750Z,8.00
2023-12-11T18:04:34.048Z,7.70
2023-12-11T18:07:02.861Z,8.50
2023-12-11T18:09:31.329Z,7.80
2023-12-11T18:12:00.584Z,11.70
2023-12-11T18:14:28.708Z,10.30
2023-12-11T18:16:57.142Z,10.70
2023-12-11T18:19:25.477Z,11.10
2023-12-11T18:21:53.642Z,9.30
2023-12-11T18:24:21.587Z,8.80
2023-12-11T18:26:50.452Z,6.80
2023-12-11T18:29:19.159Z,8.50
2023-12-11T18:31:47.585Z,7.60
2023-12-11T18:36:45.294Z,9.20
2023-12-11T18:39:14.795Z,7.60
2023-12-11T18:41:43.375Z,6.20
2023-12-11T18:44:11.452Z,8.20
2023-12-11T18:46:39.652Z,9.80
2023-12-11T18:49:07.776Z,7.60
2023-12-11T18:51:36.146Z,8.10
2023-12-11T18:54:04.243Z,8.50
2023-12-11T18:56:32.212Z,7.70
2023-12-11T18:59:00.203Z,7.30
2023-12-11T19:01:28.239Z,7.80
2023-12-11T19:03:56.547Z,9.30
2023-12-11T19:06:24.635Z,9.30
2023-12-11T19:08:52.615Z,7.30
2023-12-11T19:11:20.642Z,7.10
2023-12-11T19:13:48.642Z,11.50
2023-12-11T19:16:16.669Z,6.70
2023-12-11T19:18:44.792Z,8.50
2023-12-11T19:21:15.001Z,8.10
2023-12-11T19:23:43.130Z,5.30
2023-12-11T19:26:12.962Z,7.60
2023-12-11T19:28:40.925Z,8.80
2023-12-11T19:31:08.977Z,7.60
2023-12-11T19:33:36.914Z,6.10
2023-12-11T19:36:05.401Z,6.20
2023-12-11T19:38:33.404Z,5.70
2023-12-11T19:41:01.380Z,9.50
2023-12-11T19:43:29.391Z,7.80
2023-12-11T19:45:57.413Z,6.90
2023-12-11T19:48:25.564Z,5.90
2023-12-11T19:50:53.626Z,7.90
2023-12-11T19:53:21.694Z,6.60
2023-12-11T19:55:49.930Z,5.80
2023-12-11T19:58:19.912Z,9.10
2023-12-11T20:00:49.166Z,7.70
2023-12-11T20:03:17.193Z,4.60
2023-12-11T20:05:45.241Z,5.40
2023-12-11T20:08:13.329Z,5.20
2023-12-11T20:10:41.369Z,4.30
2023-12-11T20:13:09.289Z,3.10
2023-12-11T20:15:38.522Z,2.00
2023-12-11T20:18:07.738Z,1.90
2023-12-11T20:20:35.712Z,2.50
2023-12-11T20:23:03.920Z,3.50
2023-12-11T20:25:31.836Z,2.00
2023-12-11T20:27:59.852Z,2.20
2023-12-11T20:30:27.951Z,4.10
2023-12-11T20:32:55.978Z,3.60
2023-12-11T20:35:24.122Z,3.30
2023-12-11T20:37:52.732Z,3.00
2023-12-11T20:40:20.712Z,2.70
2023-12-11T20:42:48.592Z,2.90
2023-12-11T20:45:18.193Z,3.60
2023-12-11T20:47:49.579Z,2.10
2023-12-11T20:50:17.620Z,2.50
2023-12-11T20:52:45.697Z,3.90
2023-12-11T20:55:13.746Z,3.30
2023-12-11T20:57:41.684Z,2.10
2023-12-11T21:00:11.564Z,2.90
2023-12-11T21:02:39.944Z,4.30
2023-12-11T21:05:08.280Z,4.40
2023-12-11T21:07:36.272Z,5.60
2023-12-11T21:10:04.808Z,4.00
2023-12-11T21:12:32.816Z,4.50
2023-12-11T21:15:01.086Z,3.40
2023-12-11T21:17:29.261Z,4.00
2023-12-11T21:19:57.424Z,6.50
2023-12-11T21:22:25.466Z,3.90
2023-12-11T21:24:53.448Z,5.80
2023-12-11T21:27:21.418Z,1.70
2023-12-11T21:29:49.454Z,3.30
2023-12-11T21:32:17.468Z,3.50
2023-12-11T21:34:45.739Z,1.60
2023-12-11T21:37:14.225Z,2.80
2023-12-11T21:39:42.384Z,3.00
2023-12-11T21:42:10.307Z,1.80
2023-12-11T21:44:38.203Z,2.20
2023-12-11T21:47:06.773Z,1.60
2023-12-11T21:49:34.765Z,4.60
2023-12-11T21:52:04.186Z,2.20
2023-12-11T21:54:32.093Z,0.60
2023-12-11T21:56:59.951Z,3.00
2023-12-11T21:59:35.692Z,2.00
2023-12-11T22:02:10.681Z,4.90
2023-12-11T22:04:38.724Z,4.00
2023-12-11T22:07:06.769Z,2.30
2023-12-11T22:09:34.803Z,2.10
2023-12-11T22:12:02.763Z,5.40
2023-12-11T22:14:30.808Z,4.60
2023-12-11T22:16:58.793Z,3.30
2023-12-11T22:19:27.357Z,2.80
2023-12-11T22:21:55.725Z,2.50
2023-12-11T22:24:23.684Z,3.70
2023-12-11T22:26:52.842Z,3.00
2023-12-11T22:29:20.908Z,2.10
2023-12-11T22:31:49.463Z,1.40
2023-12-11T22:34:17.587Z,3.30
2023-12-11T22:36:45.671Z,2.80
2023-12-11T22:39:13.671Z,3.20
2023-12-11T22:41:41.611Z,3.30
2023-12-11T22:44:11.095Z,2.50
2023-12-11T22:46:39.070Z,2.30
2023-12-11T22:49:07.265Z,4.30
2023-12-11T22:51:35.184Z,3.60
2023-12-11T22:54:03.086Z,3.10
2023-12-11T22:56:31.017Z,2.00
2023-12-11T22:58:59.020Z,1.50
2023-12-11T23:01:32.766Z,7.00
2023-12-11T23:04:00.824Z,1.70
2023-12-11T23:06:28.955Z,4.80
2023-12-11T23:08:56.870Z,3.10
2023-12-11T23:11:24.828Z,2.80
2023-12-11T23:13:52.923Z,4.90
2023-12-11T23:16:27.369Z,3.20
2023-12-11T23:19:00.208Z,3.70
2023-12-11T23:21:33.010Z,3.00
2023-12-11T23:24:01.413Z,3.90
2023-12-11T23:26:29.373Z,3.60
2023-12-11T23:28:57.380Z,4.90
2023-12-11T23:31:25.335Z,5.00
2023-12-11T23:33:53.957Z,5.50
2023-12-11T23:36:22.026Z,2.50
2023-12-11T23:38:50.155Z,2.80
2023-12-11T23:41:18.112Z,3.80
2023-12-11T23:43:46.021Z,3.20
2023-12-11T23:46:14.034Z,5.80
2023-12-11T23:48:42.263Z,3.00
2023-12-11T23:51:10.383Z,2.80
2023-12-11T23:53:38.330Z,3.90
2023-12-11T23:56:06.771Z,2.50
2023-12-11T23:58:35.127Z,2.90
